sensor_id;sensor_type;location;lat;lon;timestamp;P1;durP1;ratioP1;P2;durP2;ratioP2
61785;SDS011;47692;53.714;11.372;2023-01-08T00:00:52;4.35;;;2.90;;
61785;SDS011;47692;53.714;11.372;2023-01-08T00:03:17;5.30;;;3.72;;
61785;SDS011;47692;53.714;11.372;2023-01-08T00:05:43;3.28;;;2.60;;
61785;SDS011;47692;53.714;11.372;2023-01-08T00:08:08;4.60;;;3.05;;
61785;SDS011;47692;53.714;11.372;2023-01-08T00:10:37;8.38;;;3.10;;
61785;SDS011;47692;53.714;11.372;2023-01-08T00:13:03;3.80;;;2.70;;
61785;SDS011;47692;53.714;11.372;2023-01-08T00:15:30;4.57;;;3.03;;
61785;SDS011;47692;53.714;11.372;2023-01-08T00:17:55;5.07;;;3.00;;
61785;SDS011;47692;53.714;11.372;2023-01-08T00:20:21;5.78;;;3.42;;
61785;SDS011;47692;53.714;11.372;2023-01-08T00:22:47;4.10;;;2.88;;
61785;SDS011;47692;53.714;11.372;2023-01-08T00:25:13;5.15;;;3.00;;
61785;SDS011;47692;53.714;11.372;2023-01-08T00:27:39;5.45;;;3.30;;
61785;SDS011;47692;53.714;11.372;2023-01-08T00:30:04;4.55;;;3.08;;
61785;SDS011;47692;53.714;11.372;2023-01-08T00:32:30;5.47;;;3.13;;
61785;SDS011;47692;53.714;11.372;2023-01-08T00:34:55;5.88;;;3.08;;
61785;SDS011;47692;53.714;11.372;2023-01-08T00:37:20;3.97;;;2.78;;
61785;SDS011;47692;53.714;11.372;2023-01-08T00:39:46;4.88;;;2.95;;
61785;SDS011;47692;53.714;11.372;2023-01-08T00:42:11;6.70;;;3.40;;
61785;SDS011;47692;53.714;11.372;2023-01-08T00:44:36;5.15;;;3.30;;
61785;SDS011;47692;53.714;11.372;2023-01-08T00:47:02;5.78;;;3.30;;
61785;SDS011;47692;53.714;11.372;2023-01-08T00:49:27;4.78;;;3.13;;
61785;SDS011;47692;53.714;11.372;2023-01-08T00:51:53;5.10;;;2.80;;
61785;SDS011;47692;53.714;11.372;2023-01-08T00:54:18;6.63;;;3.10;;
61785;SDS011;47692;53.714;11.372;2023-01-08T00:56:43;9.40;;;3.65;;
61785;SDS011;47692;53.714;11.372;2023-01-08T00:59:09;5.88;;;3.47;;
61785;SDS011;47692;53.714;11.372;2023-01-08T01:01:34;5.68;;;3.30;;
61785;SDS011;47692;53.714;11.372;2023-01-08T01:03:59;6.20;;;3.13;;
61785;SDS011;47692;53.714;11.372;2023-01-08T01:06:25;4.75;;;3.10;;
61785;SDS011;47692;53.714;11.372;2023-01-08T01:08:50;7.65;;;3.50;;
61785;SDS011;47692;53.714;11.372;2023-01-08T01:11:17;5.28;;;3.20;;
61785;SDS011;47692;53.714;11.372;2023-01-08T01:13:44;6.65;;;3.85;;
61785;SDS011;47692;53.714;11.372;2023-01-08T01:16:10;5.40;;;3.22;;
61785;SDS011;47692;53.714;11.372;2023-01-08T01:18:35;4.72;;;3.28;;
61785;SDS011;47692;53.714;11.372;2023-01-08T01:21:01;7.30;;;3.65;;
61785;SDS011;47692;53.714;11.372;2023-01-08T01:23:26;5.20;;;2.90;;
61785;SDS011;47692;53.714;11.372;2023-01-08T01:25:52;4.63;;;3.17;;
61785;SDS011;47692;53.714;11.372;2023-01-08T01:28:18;5.68;;;3.22;;
61785;SDS011;47692;53.714;11.372;2023-01-08T01:30:44;5.32;;;3.50;;
61785;SDS011;47692;53.714;11.372;2023-01-08T01:33:09;4.55;;;3.33;;
61785;SDS011;47692;53.714;11.372;2023-01-08T01:35:34;6.05;;;3.33;;
61785;SDS011;47692;53.714;11.372;2023-01-08T01:37:59;5.03;;;3.58;;
61785;SDS011;47692;53.714;11.372;2023-01-08T01:40:25;4.95;;;3.58;;
61785;SDS011;47692;53.714;11.372;2023-01-08T01:42:50;6.47;;;3.80;;
61785;SDS011;47692;53.714;11.372;2023-01-08T01:45:17;7.78;;;3.58;;
61785;SDS011;47692;53.714;11.372;2023-01-08T01:48:01;5.18;;;3.58;;
61785;SDS011;47692;53.714;11.372;2023-01-08T01:50:46;4.93;;;3.28;;
61785;SDS011;47692;53.714;11.372;2023-01-08T01:53:20;6.30;;;3.65;;
61785;SDS011;47692;53.714;11.372;2023-01-08T01:55:51;6.10;;;3.50;;
61785;SDS011;47692;53.714;11.372;2023-01-08T01:58:23;5.53;;;3.35;;
61785;SDS011;47692;53.714;11.372;2023-01-08T02:00:57;6.28;;;3.53;;
61785;SDS011;47692;53.714;11.372;2023-01-08T02:03:28;5.28;;;3.25;;
61785;SDS011;47692;53.714;11.372;2023-01-08T02:05:57;5.47;;;3.67;;
61785;SDS011;47692;53.714;11.372;2023-01-08T02:14:10;5.28;;;3.53;;
61785;SDS011;47692;53.714;11.372;2023-01-08T02:16:49;6.20;;;3.30;;
61785;SDS011;47692;53.714;11.372;2023-01-08T02:27:56;6.38;;;3.58;;
61785;SDS011;47692;53.714;11.372;2023-01-08T02:30:25;5.85;;;3.58;;
61785;SDS011;47692;53.714;11.372;2023-01-08T02:32:51;5.53;;;3.75;;
61785;SDS011;47692;53.714;11.372;2023-01-08T02:35:16;5.35;;;3.50;;
61785;SDS011;47692;53.714;11.372;2023-01-08T02:37:41;6.47;;;3.80;;
61785;SDS011;47692;53.714;11.372;2023-01-08T02:40:14;5.15;;;3.47;;
61785;SDS011;47692;53.714;11.372;2023-01-08T02:42:50;5.63;;;3.58;;
61785;SDS011;47692;53.714;11.372;2023-01-08T02:45:43;6.20;;;3.53;;
61785;SDS011;47692;53.714;11.372;2023-01-08T02:48:13;4.90;;;3.22;;
61785;SDS011;47692;53.714;11.372;2023-01-08T02:51:12;5.15;;;3.53;;
61785;SDS011;47692;53.714;11.372;2023-01-08T02:53:49;5.72;;;3.50;;
61785;SDS011;47692;53.714;11.372;2023-01-08T02:56:22;6.03;;;3.47;;
61785;SDS011;47692;53.714;11.372;2023-01-08T02:58:51;7.30;;;3.67;;
61785;SDS011;47692;53.714;11.372;2023-01-08T03:01:18;5.88;;;4.00;;
61785;SDS011;47692;53.714;11.372;2023-01-08T03:03:48;6.47;;;3.90;;
61785;SDS011;47692;53.714;11.372;2023-01-08T03:06:18;5.43;;;3.65;;
61785;SDS011;47692;53.714;11.372;2023-01-08T03:08:45;5.60;;;3.58;;
61785;SDS011;47692;53.714;11.372;2023-01-08T03:11:15;7.03;;;3.53;;
61785;SDS011;47692;53.714;11.372;2023-01-08T03:16:17;5.38;;;3.30;;
61785;SDS011;47692;53.714;11.372;2023-01-08T03:18:50;4.97;;;3.15;;
61785;SDS011;47692;53.714;11.372;2023-01-08T03:21:18;6.60;;;3.60;;
61785;SDS011;47692;53.714;11.372;2023-01-08T03:23:46;6.57;;;3.40;;
61785;SDS011;47692;53.714;11.372;2023-01-08T03:26:16;5.28;;;3.42;;
61785;SDS011;47692;53.714;11.372;2023-01-08T03:28:45;5.32;;;3.22;;
61785;SDS011;47692;53.714;11.372;2023-01-08T03:31:14;5.22;;;3.30;;
61785;SDS011;47692;53.714;11.372;2023-01-08T03:33:41;5.95;;;3.35;;
61785;SDS011;47692;53.714;11.372;2023-01-08T03:36:10;5.60;;;3.60;;
61785;SDS011;47692;53.714;11.372;2023-01-08T03:38:40;5.72;;;3.22;;
61785;SDS011;47692;53.714;11.372;2023-01-08T03:41:09;4.78;;;3.38;;
61785;SDS011;47692;53.714;11.372;2023-01-08T03:43:38;7.65;;;3.30;;
61785;SDS011;47692;53.714;11.372;2023-01-08T03:46:06;5.70;;;3.17;;
61785;SDS011;47692;53.714;11.372;2023-01-08T03:48:35;6.45;;;3.00;;
61785;SDS011;47692;53.714;11.372;2023-01-08T03:51:02;5.47;;;3.10;;
61785;SDS011;47692;53.714;11.372;2023-01-08T03:53:31;5.85;;;3.10;;
61785;SDS011;47692;53.714;11.372;2023-01-08T03:55:56;5.38;;;3.13;;
61785;SDS011;47692;53.714;11.372;2023-01-08T03:58:25;5.88;;;3.70;;
61785;SDS011;47692;53.714;11.372;2023-01-08T04:00:50;6.35;;;3.17;;
61785;SDS011;47692;53.714;11.372;2023-01-08T04:03:16;6.05;;;3.40;;
61785;SDS011;47692;53.714;11.372;2023-01-08T04:05:42;5.32;;;3.05;;
61785;SDS011;47692;53.714;11.372;2023-01-08T04:08:07;5.72;;;2.60;;
61785;SDS011;47692;53.714;11.372;2023-01-08T04:10:32;4.63;;;3.20;;
61785;SDS011;47692;53.714;11.372;2023-01-08T04:12:58;4.60;;;3.03;;
61785;SDS011;47692;53.714;11.372;2023-01-08T04:15:23;4.18;;;2.90;;
61785;SDS011;47692;53.714;11.372;2023-01-08T04:17:48;5.47;;;3.10;;
61785;SDS011;47692;53.714;11.372;2023-01-08T04:20:13;5.90;;;3.15;;
61785;SDS011;47692;53.714;11.372;2023-01-08T04:22:39;5.78;;;3.20;;
61785;SDS011;47692;53.714;11.372;2023-01-08T04:25:04;5.75;;;3.22;;
61785;SDS011;47692;53.714;11.372;2023-01-08T04:27:30;7.20;;;2.95;;
61785;SDS011;47692;53.714;11.372;2023-01-08T04:29:55;4.70;;;3.38;;
61785;SDS011;47692;53.714;11.372;2023-01-08T04:32:20;6.20;;;3.33;;
61785;SDS011;47692;53.714;11.372;2023-01-08T04:34:46;4.88;;;3.00;;
61785;SDS011;47692;53.714;11.372;2023-01-08T04:37:11;5.80;;;3.40;;
61785;SDS011;47692;53.714;11.372;2023-01-08T04:39:36;5.05;;;2.97;;
61785;SDS011;47692;53.714;11.372;2023-01-08T04:42:02;5.78;;;2.92;;
61785;SDS011;47692;53.714;11.372;2023-01-08T04:44:27;4.90;;;2.50;;
61785;SDS011;47692;53.714;11.372;2023-01-08T04:46:53;4.93;;;3.10;;
61785;SDS011;47692;53.714;11.372;2023-01-08T04:49:18;4.85;;;2.97;;
61785;SDS011;47692;53.714;11.372;2023-01-08T04:51:43;5.50;;;3.63;;
61785;SDS011;47692;53.714;11.372;2023-01-08T04:54:09;6.00;;;3.05;;
61785;SDS011;47692;53.714;11.372;2023-01-08T04:56:34;6.20;;;2.83;;
61785;SDS011;47692;53.714;11.372;2023-01-08T04:58:59;4.03;;;2.72;;
61785;SDS011;47692;53.714;11.372;2023-01-08T05:01:25;6.53;;;3.00;;
61785;SDS011;47692;53.714;11.372;2023-01-08T05:03:55;6.28;;;3.92;;
61785;SDS011;47692;53.714;11.372;2023-01-08T05:06:25;4.72;;;3.05;;
61785;SDS011;47692;53.714;11.372;2023-01-08T05:08:52;4.78;;;2.83;;
61785;SDS011;47692;53.714;11.372;2023-01-08T05:11:17;3.53;;;2.65;;
61785;SDS011;47692;53.714;11.372;2023-01-08T05:13:45;4.50;;;2.90;;
61785;SDS011;47692;53.714;11.372;2023-01-08T05:16:12;4.47;;;2.70;;
61785;SDS011;47692;53.714;11.372;2023-01-08T05:18:37;5.78;;;3.15;;
61785;SDS011;47692;53.714;11.372;2023-01-08T05:21:03;6.35;;;2.90;;
61785;SDS011;47692;53.714;11.372;2023-01-08T05:23:29;5.30;;;2.97;;
61785;SDS011;47692;53.714;11.372;2023-01-08T05:25:56;4.82;;;2.47;;
61785;SDS011;47692;53.714;11.372;2023-01-08T05:28:22;4.93;;;3.13;;
61785;SDS011;47692;53.714;11.372;2023-01-08T05:30:49;6.00;;;2.65;;
61785;SDS011;47692;53.714;11.372;2023-01-08T05:33:15;4.43;;;2.70;;
61785;SDS011;47692;53.714;11.372;2023-01-08T05:35:40;5.03;;;2.88;;
61785;SDS011;47692;53.714;11.372;2023-01-08T05:38:06;4.35;;;3.10;;
61785;SDS011;47692;53.714;11.372;2023-01-08T05:40:31;5.28;;;3.40;;
61785;SDS011;47692;53.714;11.372;2023-01-08T05:43:00;4.05;;;2.58;;
61785;SDS011;47692;53.714;11.372;2023-01-08T05:45:26;7.95;;;3.42;;
61785;SDS011;47692;53.714;11.372;2023-01-08T05:47:51;5.40;;;3.13;;
61785;SDS011;47692;53.714;11.372;2023-01-08T05:50:17;5.25;;;2.97;;
61785;SDS011;47692;53.714;11.372;2023-01-08T05:52:42;5.15;;;3.20;;
61785;SDS011;47692;53.714;11.372;2023-01-08T05:55:08;5.18;;;3.30;;
61785;SDS011;47692;53.714;11.372;2023-01-08T05:57:34;6.25;;;3.60;;
61785;SDS011;47692;53.714;11.372;2023-01-08T05:59:59;5.28;;;3.60;;
61785;SDS011;47692;53.714;11.372;2023-01-08T06:02:24;4.88;;;3.05;;
61785;SDS011;47692;53.714;11.372;2023-01-08T06:04:50;7.18;;;3.25;;
61785;SDS011;47692;53.714;11.372;2023-01-08T06:07:15;5.18;;;3.03;;
61785;SDS011;47692;53.714;11.372;2023-01-08T06:09:40;5.65;;;3.58;;
61785;SDS011;47692;53.714;11.372;2023-01-08T06:12:06;11.35;;;3.70;;
61785;SDS011;47692;53.714;11.372;2023-01-08T06:14:31;5.53;;;3.67;;
61785;SDS011;47692;53.714;11.372;2023-01-08T06:16:57;6.35;;;3.25;;
61785;SDS011;47692;53.714;11.372;2023-01-08T06:19:22;5.03;;;3.17;;
61785;SDS011;47692;53.714;11.372;2023-01-08T06:21:48;8.55;;;3.42;;
61785;SDS011;47692;53.714;11.372;2023-01-08T06:24:13;5.25;;;3.47;;
61785;SDS011;47692;53.714;11.372;2023-01-08T06:26:38;5.00;;;3.20;;
61785;SDS011;47692;53.714;11.372;2023-01-08T06:29:04;5.20;;;3.50;;
61785;SDS011;47692;53.714;11.372;2023-01-08T06:31:29;6.20;;;3.85;;
61785;SDS011;47692;53.714;11.372;2023-01-08T06:33:55;5.35;;;3.35;;
61785;SDS011;47692;53.714;11.372;2023-01-08T06:36:20;5.68;;;3.55;;
61785;SDS011;47692;53.714;11.372;2023-01-08T06:38:45;5.97;;;3.75;;
61785;SDS011;47692;53.714;11.372;2023-01-08T06:41:11;4.95;;;3.47;;
61785;SDS011;47692;53.714;11.372;2023-01-08T06:43:36;5.60;;;3.40;;
61785;SDS011;47692;53.714;11.372;2023-01-08T06:46:02;5.55;;;3.72;;
61785;SDS011;47692;53.714;11.372;2023-01-08T06:48:29;5.50;;;3.53;;
61785;SDS011;47692;53.714;11.372;2023-01-08T06:50:54;7.13;;;3.85;;
61785;SDS011;47692;53.714;11.372;2023-01-08T06:53:20;4.95;;;3.50;;
61785;SDS011;47692;53.714;11.372;2023-01-08T06:55:45;9.23;;;4.00;;
61785;SDS011;47692;53.714;11.372;2023-01-08T06:58:11;7.28;;;4.10;;
61785;SDS011;47692;53.714;11.372;2023-01-08T07:00:36;6.72;;;3.72;;
61785;SDS011;47692;53.714;11.372;2023-01-08T07:03:02;6.30;;;3.80;;
61785;SDS011;47692;53.714;11.372;2023-01-08T07:05:27;8.05;;;4.15;;
61785;SDS011;47692;53.714;11.372;2023-01-08T07:07:53;7.00;;;4.43;;
61785;SDS011;47692;53.714;11.372;2023-01-08T07:10:18;8.70;;;4.10;;
61785;SDS011;47692;53.714;11.372;2023-01-08T07:12:43;6.60;;;3.90;;
61785;SDS011;47692;53.714;11.372;2023-01-08T07:15:09;7.93;;;3.80;;
61785;SDS011;47692;53.714;11.372;2023-01-08T07:17:34;6.88;;;4.20;;
61785;SDS011;47692;53.714;11.372;2023-01-08T07:20:01;6.25;;;3.80;;
61785;SDS011;47692;53.714;11.372;2023-01-08T07:22:26;8.88;;;3.85;;
61785;SDS011;47692;53.714;11.372;2023-01-08T07:24:52;7.00;;;4.50;;
61785;SDS011;47692;53.714;11.372;2023-01-08T07:27:17;8.30;;;4.22;;
61785;SDS011;47692;53.714;11.372;2023-01-08T07:29:43;6.47;;;4.05;;
61785;SDS011;47692;53.714;11.372;2023-01-08T07:32:08;7.85;;;4.55;;
61785;SDS011;47692;53.714;11.372;2023-01-08T07:34:34;10.60;;;3.85;;
61785;SDS011;47692;53.714;11.372;2023-01-08T07:37:00;7.63;;;4.53;;
61785;SDS011;47692;53.714;11.372;2023-01-08T07:39:26;6.78;;;4.22;;
61785;SDS011;47692;53.714;11.372;2023-01-08T07:41:51;8.20;;;4.57;;
61785;SDS011;47692;53.714;11.372;2023-01-08T07:44:16;5.30;;;3.90;;
61785;SDS011;47692;53.714;11.372;2023-01-08T07:46:42;6.75;;;4.30;;
61785;SDS011;47692;53.714;11.372;2023-01-08T07:49:07;7.68;;;4.35;;
61785;SDS011;47692;53.714;11.372;2023-01-08T07:51:32;6.35;;;3.88;;
61785;SDS011;47692;53.714;11.372;2023-01-08T07:53:58;7.00;;;4.25;;
61785;SDS011;47692;53.714;11.372;2023-01-08T07:56:23;8.23;;;4.55;;
61785;SDS011;47692;53.714;11.372;2023-01-08T07:58:49;8.27;;;4.80;;
61785;SDS011;47692;53.714;11.372;2023-01-08T08:01:15;6.65;;;4.05;;
61785;SDS011;47692;53.714;11.372;2023-01-08T08:03:40;7.90;;;4.72;;
61785;SDS011;47692;53.714;11.372;2023-01-08T08:06:06;6.85;;;4.25;;
61785;SDS011;47692;53.714;11.372;2023-01-08T08:08:32;8.02;;;5.28;;
61785;SDS011;47692;53.714;11.372;2023-01-08T08:10:58;7.85;;;4.28;;
61785;SDS011;47692;53.714;11.372;2023-01-08T08:13:24;7.95;;;4.75;;
61785;SDS011;47692;53.714;11.372;2023-01-08T08:15:49;8.52;;;4.50;;
61785;SDS011;47692;53.714;11.372;2023-01-08T08:18:15;7.90;;;4.72;;
61785;SDS011;47692;53.714;11.372;2023-01-08T08:20:40;7.10;;;4.55;;
61785;SDS011;47692;53.714;11.372;2023-01-08T08:23:09;8.52;;;5.28;;
61785;SDS011;47692;53.714;11.372;2023-01-08T08:25:37;6.97;;;4.50;;
61785;SDS011;47692;53.714;11.372;2023-01-08T08:28:04;10.07;;;5.30;;
61785;SDS011;47692;53.714;11.372;2023-01-08T08:30:30;8.13;;;4.53;;
61785;SDS011;47692;53.714;11.372;2023-01-08T08:32:57;8.73;;;4.75;;
61785;SDS011;47692;53.714;11.372;2023-01-08T08:35:24;7.25;;;4.47;;
61785;SDS011;47692;53.714;11.372;2023-01-08T08:37:50;8.43;;;5.20;;
61785;SDS011;47692;53.714;11.372;2023-01-08T08:40:15;7.07;;;4.25;;
61785;SDS011;47692;53.714;11.372;2023-01-08T08:42:41;7.07;;;5.15;;
61785;SDS011;47692;53.714;11.372;2023-01-08T08:45:06;7.82;;;4.70;;
61785;SDS011;47692;53.714;11.372;2023-01-08T08:47:32;7.55;;;4.93;;
61785;SDS011;47692;53.714;11.372;2023-01-08T08:49:57;11.25;;;5.38;;
61785;SDS011;47692;53.714;11.372;2023-01-08T08:52:23;7.60;;;4.85;;
61785;SDS011;47692;53.714;11.372;2023-01-08T08:54:48;9.10;;;5.55;;
61785;SDS011;47692;53.714;11.372;2023-01-08T08:57:13;8.40;;;5.30;;
61785;SDS011;47692;53.714;11.372;2023-01-08T08:59:39;8.80;;;5.28;;
61785;SDS011;47692;53.714;11.372;2023-01-08T09:02:04;8.60;;;4.90;;
61785;SDS011;47692;53.714;11.372;2023-01-08T09:04:31;10.13;;;5.35;;
61785;SDS011;47692;53.714;11.372;2023-01-08T09:06:57;10.30;;;5.20;;
61785;SDS011;47692;53.714;11.372;2023-01-08T09:09:23;9.02;;;5.47;;
61785;SDS011;47692;53.714;11.372;2023-01-08T09:11:49;11.45;;;6.05;;
61785;SDS011;47692;53.714;11.372;2023-01-08T09:14:16;10.85;;;5.88;;
61785;SDS011;47692;53.714;11.372;2023-01-08T09:16:42;7.55;;;4.70;;
61785;SDS011;47692;53.714;11.372;2023-01-08T09:19:08;8.80;;;5.72;;
61785;SDS011;47692;53.714;11.372;2023-01-08T09:21:34;9.77;;;5.85;;
61785;SDS011;47692;53.714;11.372;2023-01-08T09:24:00;8.88;;;5.35;;
61785;SDS011;47692;53.714;11.372;2023-01-08T09:26:25;7.88;;;4.88;;
61785;SDS011;47692;53.714;11.372;2023-01-08T09:28:52;7.72;;;5.05;;
61785;SDS011;47692;53.714;11.372;2023-01-08T09:31:18;9.48;;;5.30;;
61785;SDS011;47692;53.714;11.372;2023-01-08T09:33:43;8.57;;;5.22;;
61785;SDS011;47692;53.714;11.372;2023-01-08T09:36:11;8.68;;;4.90;;
61785;SDS011;47692;53.714;11.372;2023-01-08T09:38:37;10.07;;;5.22;;
61785;SDS011;47692;53.714;11.372;2023-01-08T09:41:09;8.70;;;4.97;;
61785;SDS011;47692;53.714;11.372;2023-01-08T09:43:41;10.93;;;5.30;;
61785;SDS011;47692;53.714;11.372;2023-01-08T09:46:09;7.90;;;5.20;;
61785;SDS011;47692;53.714;11.372;2023-01-08T09:48:37;8.50;;;4.65;;
61785;SDS011;47692;53.714;11.372;2023-01-08T09:51:06;9.18;;;5.40;;
61785;SDS011;47692;53.714;11.372;2023-01-08T09:53:40;9.10;;;5.40;;
61785;SDS011;47692;53.714;11.372;2023-01-08T09:56:14;7.93;;;5.15;;
61785;SDS011;47692;53.714;11.372;2023-01-08T09:58:51;9.43;;;5.18;;
61785;SDS011;47692;53.714;11.372;2023-01-08T10:01:19;9.73;;;4.85;;
61785;SDS011;47692;53.714;11.372;2023-01-08T10:03:49;8.85;;;5.28;;
61785;SDS011;47692;53.714;11.372;2023-01-08T10:06:15;8.68;;;4.82;;
61785;SDS011;47692;53.714;11.372;2023-01-08T10:08:41;10.80;;;5.68;;
61785;SDS011;47692;53.714;11.372;2023-01-08T10:11:07;8.30;;;4.72;;
61785;SDS011;47692;53.714;11.372;2023-01-08T10:13:36;9.15;;;5.28;;
61785;SDS011;47692;53.714;11.372;2023-01-08T10:16:06;11.25;;;5.90;;
61785;SDS011;47692;53.714;11.372;2023-01-08T10:18:33;7.80;;;5.05;;
61785;SDS011;47692;53.714;11.372;2023-01-08T10:20:59;8.68;;;5.32;;
61785;SDS011;47692;53.714;11.372;2023-01-08T10:23:24;10.40;;;5.90;;
61785;SDS011;47692;53.714;11.372;2023-01-08T10:25:57;9.00;;;4.95;;
61785;SDS011;47692;53.714;11.372;2023-01-08T10:28:25;9.70;;;5.65;;
61785;SDS011;47692;53.714;11.372;2023-01-08T10:30:53;9.23;;;5.55;;
61785;SDS011;47692;53.714;11.372;2023-01-08T10:33:24;9.68;;;5.45;;
61785;SDS011;47692;53.714;11.372;2023-01-08T10:36:11;9.88;;;5.10;;
61785;SDS011;47692;53.714;11.372;2023-01-08T10:38:51;9.90;;;5.38;;
61785;SDS011;47692;53.714;11.372;2023-01-08T10:41:20;7.57;;;4.88;;
61785;SDS011;47692;53.714;11.372;2023-01-08T10:48:52;7.28;;;4.95;;
61785;SDS011;47692;53.714;11.372;2023-01-08T10:51:21;9.57;;;5.30;;
61785;SDS011;47692;53.714;11.372;2023-01-08T10:53:48;9.35;;;5.30;;
61785;SDS011;47692;53.714;11.372;2023-01-08T10:56:21;8.05;;;5.03;;
61785;SDS011;47692;53.714;11.372;2023-01-08T10:58:46;10.07;;;4.85;;
61785;SDS011;47692;53.714;11.372;2023-01-08T11:01:33;8.93;;;5.30;;
61785;SDS011;47692;53.714;11.372;2023-01-08T11:03:58;9.57;;;5.10;;
61785;SDS011;47692;53.714;11.372;2023-01-08T11:06:26;8.82;;;4.50;;
61785;SDS011;47692;53.714;11.372;2023-01-08T11:09:02;6.72;;;4.45;;
61785;SDS011;47692;53.714;11.372;2023-01-08T11:11:45;7.38;;;4.45;;
61785;SDS011;47692;53.714;11.372;2023-01-08T11:16:59;8.20;;;4.30;;
61785;SDS011;47692;53.714;11.372;2023-01-08T11:19:30;7.95;;;4.50;;
61785;SDS011;47692;53.714;11.372;2023-01-08T11:21:58;6.95;;;4.70;;
61785;SDS011;47692;53.714;11.372;2023-01-08T11:24:31;8.20;;;4.70;;
61785;SDS011;47692;53.714;11.372;2023-01-08T11:29:29;6.60;;;4.63;;
61785;SDS011;47692;53.714;11.372;2023-01-08T11:37:26;8.13;;;4.75;;
61785;SDS011;47692;53.714;11.372;2023-01-08T11:39:53;8.70;;;4.78;;
61785;SDS011;47692;53.714;11.372;2023-01-08T11:45:16;10.00;;;5.25;;
61785;SDS011;47692;53.714;11.372;2023-01-08T11:50:27;6.53;;;4.35;;
61785;SDS011;47692;53.714;11.372;2023-01-08T11:55:48;7.97;;;4.53;;
61785;SDS011;47692;53.714;11.372;2023-01-08T11:58:28;8.60;;;4.20;;
61785;SDS011;47692;53.714;11.372;2023-01-08T12:03:53;6.03;;;3.65;;
61785;SDS011;47692;53.714;11.372;2023-01-08T12:29:21;6.80;;;4.55;;
61785;SDS011;47692;53.714;11.372;2023-01-08T12:34:46;7.53;;;4.63;;
61785;SDS011;47692;53.714;11.372;2023-01-08T12:42:39;9.00;;;5.32;;
61785;SDS011;47692;53.714;11.372;2023-01-08T12:45:11;19.30;;;8.88;;
61785;SDS011;47692;53.714;11.372;2023-01-08T12:47:45;13.93;;;7.45;;
61785;SDS011;47692;53.714;11.372;2023-01-08T12:55:51;7.53;;;4.75;;
61785;SDS011;47692;53.714;11.372;2023-01-08T13:03:30;7.13;;;4.07;;
61785;SDS011;47692;53.714;11.372;2023-01-08T13:06:11;6.55;;;4.25;;
61785;SDS011;47692;53.714;11.372;2023-01-08T13:08:40;7.70;;;3.95;;
61785;SDS011;47692;53.714;11.372;2023-01-08T13:11:08;6.32;;;4.15;;
61785;SDS011;47692;53.714;11.372;2023-01-08T13:13:36;5.55;;;3.78;;
61785;SDS011;47692;53.714;11.372;2023-01-08T13:18:49;7.25;;;3.92;;
61785;SDS011;47692;53.714;11.372;2023-01-08T13:21:16;5.70;;;4.00;;
61785;SDS011;47692;53.714;11.372;2023-01-08T13:23:42;6.75;;;4.00;;
61785;SDS011;47692;53.714;11.372;2023-01-08T13:26:07;7.35;;;4.35;;
61785;SDS011;47692;53.714;11.372;2023-01-08T13:33:44;7.28;;;4.38;;
61785;SDS011;47692;53.714;11.372;2023-01-08T13:38:40;6.35;;;3.97;;
61785;SDS011;47692;53.714;11.372;2023-01-08T13:41:29;6.55;;;4.30;;
61785;SDS011;47692;53.714;11.372;2023-01-08T13:44:00;5.20;;;3.65;;
61785;SDS011;47692;53.714;11.372;2023-01-08T13:46:31;6.65;;;4.50;;
61785;SDS011;47692;53.714;11.372;2023-01-08T13:49:16;7.43;;;4.63;;
61785;SDS011;47692;53.714;11.372;2023-01-08T13:51:47;7.90;;;4.70;;
61785;SDS011;47692;53.714;11.372;2023-01-08T13:56:41;7.35;;;3.95;;
61785;SDS011;47692;53.714;11.372;2023-01-08T14:01:52;7.85;;;4.75;;
61785;SDS011;47692;53.714;11.372;2023-01-08T14:04:19;6.88;;;4.45;;
61785;SDS011;47692;53.714;11.372;2023-01-08T14:06:46;9.05;;;4.68;;
61785;SDS011;47692;53.714;11.372;2023-01-08T14:09:17;7.10;;;4.65;;
61785;SDS011;47692;53.714;11.372;2023-01-08T14:11:46;7.22;;;4.85;;
61785;SDS011;47692;53.714;11.372;2023-01-08T14:14:15;6.63;;;4.60;;
61785;SDS011;47692;53.714;11.372;2023-01-08T14:16:41;9.07;;;5.88;;
61785;SDS011;47692;53.714;11.372;2023-01-08T14:19:10;8.23;;;4.68;;
61785;SDS011;47692;53.714;11.372;2023-01-08T14:21:44;7.70;;;4.75;;
61785;SDS011;47692;53.714;11.372;2023-01-08T14:24:12;7.25;;;4.30;;
61785;SDS011;47692;53.714;11.372;2023-01-08T14:26:40;6.90;;;4.38;;
61785;SDS011;47692;53.714;11.372;2023-01-08T14:29:15;6.40;;;4.82;;
61785;SDS011;47692;53.714;11.372;2023-01-08T14:31:48;9.77;;;7.07;;
61785;SDS011;47692;53.714;11.372;2023-01-08T14:36:42;7.38;;;4.75;;
61785;SDS011;47692;53.714;11.372;2023-01-08T14:39:09;7.85;;;6.10;;
61785;SDS011;47692;53.714;11.372;2023-01-08T14:41:36;16.92;;;7.55;;
61785;SDS011;47692;53.714;11.372;2023-01-08T14:44:24;8.57;;;4.95;;
61785;SDS011;47692;53.714;11.372;2023-01-08T14:46:50;9.68;;;6.03;;
61785;SDS011;47692;53.714;11.372;2023-01-08T14:49:37;6.75;;;4.68;;
61785;SDS011;47692;53.714;11.372;2023-01-08T14:52:08;11.53;;;8.10;;
61785;SDS011;47692;53.714;11.372;2023-01-08T14:54:36;7.03;;;5.80;;
61785;SDS011;47692;53.714;11.372;2023-01-08T14:57:02;6.88;;;5.20;;
61785;SDS011;47692;53.714;11.372;2023-01-08T14:59:31;6.82;;;4.82;;
61785;SDS011;47692;53.714;11.372;2023-01-08T15:02:01;8.30;;;4.78;;
61785;SDS011;47692;53.714;11.372;2023-01-08T15:04:28;9.05;;;6.28;;
61785;SDS011;47692;53.714;11.372;2023-01-08T15:07:07;7.90;;;4.90;;
61785;SDS011;47692;53.714;11.372;2023-01-08T15:09:53;8.15;;;5.30;;
61785;SDS011;47692;53.714;11.372;2023-01-08T15:12:27;7.85;;;5.53;;
61785;SDS011;47692;53.714;11.372;2023-01-08T15:14:54;7.63;;;5.28;;
61785;SDS011;47692;53.714;11.372;2023-01-08T15:17:21;11.98;;;8.18;;
61785;SDS011;47692;53.714;11.372;2023-01-08T15:19:50;7.78;;;5.55;;
61785;SDS011;47692;53.714;11.372;2023-01-08T15:22:19;14.70;;;9.35;;
61785;SDS011;47692;53.714;11.372;2023-01-08T15:27:59;13.77;;;8.85;;
61785;SDS011;47692;53.714;11.372;2023-01-08T15:30:35;11.23;;;8.70;;
61785;SDS011;47692;53.714;11.372;2023-01-08T15:33:19;9.02;;;6.57;;
61785;SDS011;47692;53.714;11.372;2023-01-08T15:35:46;11.13;;;6.45;;
61785;SDS011;47692;53.714;11.372;2023-01-08T15:38:12;7.65;;;5.20;;
61785;SDS011;47692;53.714;11.372;2023-01-08T15:40:38;14.82;;;9.52;;
61785;SDS011;47692;53.714;11.372;2023-01-08T15:43:04;10.73;;;7.25;;
61785;SDS011;47692;53.714;11.372;2023-01-08T15:45:36;14.75;;;8.80;;
61785;SDS011;47692;53.714;11.372;2023-01-08T15:48:03;9.30;;;5.55;;
61785;SDS011;47692;53.714;11.372;2023-01-08T15:50:29;17.27;;;8.88;;
61785;SDS011;47692;53.714;11.372;2023-01-08T15:53:02;14.07;;;7.65;;
61785;SDS011;47692;53.714;11.372;2023-01-08T15:55:29;25.23;;;11.07;;
61785;SDS011;47692;53.714;11.372;2023-01-08T15:57:56;14.00;;;7.72;;
61785;SDS011;47692;53.714;11.372;2023-01-08T16:00:22;16.75;;;8.48;;
61785;SDS011;47692;53.714;11.372;2023-01-08T16:02:51;15.98;;;8.13;;
61785;SDS011;47692;53.714;11.372;2023-01-08T16:05:18;35.22;;;13.85;;
61785;SDS011;47692;53.714;11.372;2023-01-08T16:07:45;10.90;;;6.50;;
61785;SDS011;47692;53.714;11.372;2023-01-08T16:10:11;37.15;;;15.13;;
61785;SDS011;47692;53.714;11.372;2023-01-08T16:12:37;21.42;;;10.65;;
61785;SDS011;47692;53.714;11.372;2023-01-08T16:15:02;18.23;;;8.65;;
61785;SDS011;47692;53.714;11.372;2023-01-08T16:17:28;9.93;;;6.03;;
61785;SDS011;47692;53.714;11.372;2023-01-08T16:19:54;23.95;;;10.77;;
61785;SDS011;47692;53.714;11.372;2023-01-08T16:22:20;39.45;;;14.65;;
61785;SDS011;47692;53.714;11.372;2023-01-08T16:24:45;50.70;;;18.95;;